createdAt,value
2023-02-22T00:02:41.718Z,8.12
2023-02-22T00:06:11.023Z,8.04
2023-02-22T00:09:39.983Z,7.97
2023-02-22T00:13:08.879Z,7.88
2023-02-22T00:16:40.866Z,7.80
2023-02-22T00:20:09.611Z,7.72
2023-02-22T00:23:37.127Z,7.62
2023-02-22T00:27:06.218Z,7.56
2023-02-22T00:30:35.113Z,7.50
2023-02-22T00:34:04.414Z,7.41
2023-02-22T00:37:33.236Z,7.31
2023-02-22T00:41:02.325Z,7.22
2023-02-22T00:44:31.257Z,7.13
2023-02-22T00:48:00.146Z,6.99
2023-02-22T00:51:29.388Z,6.88
2023-02-22T00:54:58.861Z,6.80
2023-02-22T00:58:27.599Z,6.71
2023-02-22T01:01:56.413Z,6.63
2023-02-22T01:05:25.502Z,6.53
2023-02-22T01:08:54.589Z,6.45
2023-02-22T01:12:23.442Z,6.37
2023-02-22T01:15:50.899Z,6.33
2023-02-22T01:19:22.312Z,6.29
2023-02-22T01:22:51.468Z,6.25
2023-02-22T01:26:20.429Z,6.19
2023-02-22T01:29:49.160Z,6.16
2023-02-22T01:33:17.934Z,6.14
2023-02-22T01:36:47.092Z,6.10
2023-02-22T01:40:16.985Z,6.09
2023-02-22T01:43:45.907Z,6.10
2023-02-22T01:47:29.731Z,6.07
2023-02-22T01:50:59.150Z,6.06
2023-02-22T01:54:24.951Z,6.04
2023-02-22T01:58:00.406Z,6.04
2023-02-22T02:01:29.484Z,5.97
2023-02-22T02:04:58.957Z,5.89
2023-02-22T02:08:28.556Z,5.80
2023-02-22T02:11:57.364Z,5.71
2023-02-22T02:15:26.677Z,5.62
2023-02-22T02:18:40.706Z,5.52
2023-02-22T02:22:33.768Z,5.43
2023-02-22T02:26:05.485Z,5.45
2023-02-22T02:29:37.894Z,5.47
2023-02-22T02:33:21.789Z,5.47
2023-02-22T02:36:56.176Z,5.49
2023-02-22T02:40:34.053Z,5.50
2023-02-22T02:44:02.846Z,5.52
2023-02-22T02:47:37.730Z,5.53
2023-02-22T02:51:07.006Z,5.54
2023-02-22T02:54:36.185Z,5.50
2023-02-22T02:58:05.456Z,5.49
2023-02-22T03:01:34.338Z,5.50
2023-02-22T03:05:13.105Z,5.52
2023-02-22T03:09:06.995Z,5.55
2023-02-22T03:12:47.871Z,5.58
2023-02-22T03:16:29.293Z,5.61
2023-02-22T03:20:07.511Z,5.63
2023-02-22T03:23:24.050Z,5.66
2023-02-22T03:30:42.016Z,5.69
2023-02-22T03:34:14.283Z,5.70
2023-02-22T03:37:46.915Z,5.73
2023-02-22T03:41:15.812Z,5.75
2023-02-22T03:44:47.856Z,5.78
2023-02-22T03:48:19.644Z,5.80
2023-02-22T03:51:49.008Z,5.83
2023-02-22T03:55:18.252Z,5.84
2023-02-22T03:58:56.881Z,5.83
2023-02-22T04:02:20.124Z,5.81
2023-02-22T04:05:49.618Z,5.80
2023-02-22T04:09:18.343Z,5.79
2023-02-22T04:12:47.055Z,5.79
2023-02-22T04:16:16.072Z,5.76
2023-02-22T04:19:45.828Z,5.75
2023-02-22T04:23:14.646Z,5.74
2023-02-22T04:26:43.505Z,5.73
2023-02-22T04:30:12.515Z,5.73
2023-02-22T04:33:41.714Z,5.73
2023-02-22T04:37:11.298Z,5.72
2023-02-22T04:40:33.312Z,5.70
2023-02-22T04:44:02.127Z,5.67
2023-02-22T04:47:24.220Z,5.66
2023-02-22T04:50:45.812Z,5.63
2023-02-22T04:54:15.114Z,5.62
2023-02-22T04:57:43.821Z,5.60
2023-02-22T05:01:12.729Z,5.57
2023-02-22T05:04:41.440Z,5.55
2023-02-22T05:08:09.094Z,5.53
2023-02-22T05:11:39.012Z,5.50
2023-02-22T05:15:08.447Z,5.47
2023-02-22T05:18:37.384Z,5.45
2023-02-22T05:21:59.208Z,5.45
2023-02-22T05:25:28.276Z,5.44
2023-02-22T05:28:57.049Z,5.42
2023-02-22T05:32:26.250Z,5.41
2023-02-22T05:35:56.395Z,5.39
2023-02-22T05:39:25.917Z,5.38
2023-02-22T05:42:55.061Z,5.38
2023-02-22T05:46:26.432Z,5.39
2023-02-22T05:49:55.614Z,5.39
2023-02-22T05:53:24.942Z,5.39
2023-02-22T05:56:54.029Z,5.39
2023-02-22T06:00:23.311Z,5.38
2023-02-22T06:03:58.122Z,5.37
2023-02-22T06:07:27.505Z,5.35
2023-02-22T06:10:56.828Z,5.35
2023-02-22T06:14:25.752Z,5.32
2023-02-22T06:17:54.920Z,5.28
2023-02-22T06:21:24.230Z,5.25
2023-02-22T06:24:55.028Z,5.23
2023-02-22T06:28:24.256Z,5.18
2023-02-22T06:31:53.374Z,5.17
2023-02-22T06:35:22.156Z,5.17
2023-02-22T06:38:51.934Z,5.17
2023-02-22T06:42:21.313Z,5.14
2023-02-22T06:45:51.123Z,5.10
2023-02-22T06:49:20.309Z,5.08
2023-02-22T06:52:42.565Z,5.05
2023-02-22T06:56:07.748Z,5.01
2023-02-22T06:59:36.847Z,4.98
2023-02-22T07:03:06.137Z,4.95
2023-02-22T07:06:27.621Z,4.92
2023-02-22T07:09:56.822Z,4.88
2023-02-22T07:13:25.611Z,4.85
2023-02-22T07:16:54.336Z,4.84
2023-02-22T07:20:23.143Z,4.80
2023-02-22T07:23:52.092Z,4.76
2023-02-22T07:27:23.554Z,4.75
2023-02-22T07:30:58.206Z,4.76
2023-02-22T07:34:29.673Z,4.78
2023-02-22T07:37:58.603Z,4.80
2023-02-22T07:41:27.448Z,4.85
2023-02-22T07:44:56.736Z,4.87
2023-02-22T07:48:25.524Z,4.89
2023-02-22T07:51:54.869Z,4.94
2023-02-22T07:55:23.897Z,4.97
2023-02-22T07:58:38.874Z,4.95
2023-02-22T08:02:07.919Z,4.91
2023-02-22T08:05:36.743Z,4.91
2023-02-22T08:08:58.496Z,4.91
2023-02-22T08:12:27.796Z,4.91
2023-02-22T08:15:59.938Z,4.86
2023-02-22T08:19:29.013Z,4.81
2023-02-22T08:22:58.809Z,4.78
2023-02-22T08:26:27.983Z,4.75
2023-02-22T08:29:57.211Z,4.75
2023-02-22T08:33:26.216Z,4.74
2023-02-22T08:36:55.666Z,4.75
2023-02-22T08:40:25.328Z,4.79
2023-02-22T08:43:54.790Z,4.82
2023-02-22T08:47:24.170Z,4.85
2023-02-22T08:50:41.624Z,4.88
2023-02-22T08:54:10.347Z,4.91
2023-02-22T08:57:39.883Z,4.93
2023-02-22T09:00:59.418Z,4.96
2023-02-22T09:04:29.327Z,4.99
2023-02-22T09:07:58.757Z,5.02
2023-02-22T09:11:22.184Z,5.02
2023-02-22T09:14:51.646Z,5.00
2023-02-22T09:18:20.591Z,4.98
2023-02-22T09:21:49.941Z,4.95
2023-02-22T09:25:19.154Z,4.92
2023-02-22T09:28:51.106Z,4.89
2023-02-22T09:32:20.591Z,4.86
2023-02-22T09:35:49.425Z,4.87
2023-02-22T09:39:21.099Z,4.91
2023-02-22T09:42:51.307Z,4.96
2023-02-22T09:46:20.349Z,5.03
2023-02-22T09:50:07.545Z,5.07
2023-02-22T09:53:34.090Z,5.12
2023-02-22T09:57:03.011Z,5.14
2023-02-22T10:00:41.129Z,5.17
2023-02-22T10:04:08.679Z,5.17
2023-02-22T10:07:38.027Z,5.15
2023-02-22T10:11:06.965Z,5.13
2023-02-22T10:14:48.022Z,5.11
2023-02-22T10:18:34.543Z,5.12
2023-02-22T10:22:09.218Z,5.13
2023-02-22T10:25:56.462Z,5.13
2023-02-22T10:29:28.553Z,5.15
2023-02-22T10:32:54.340Z,5.15
2023-02-22T10:36:16.585Z,5.14
2023-02-22T10:39:46.008Z,5.15
2023-02-22T10:43:14.892Z,5.17
2023-02-22T10:46:47.095Z,5.17
2023-02-22T10:50:19.274Z,5.18
2023-02-22T10:53:50.746Z,5.20
2023-02-22T10:57:28.541Z,5.20
2023-02-22T11:01:00.969Z,5.21
2023-02-22T11:04:39.189Z,5.21
2023-02-22T11:08:11.065Z,5.22
2023-02-22T11:11:39.885Z,5.24
2023-02-22T11:15:09.163Z,5.24
2023-02-22T11:18:38.226Z,5.23
2023-02-22T11:22:10.039Z,5.22
2023-02-22T11:25:38.694Z,5.25
2023-02-22T11:29:13.915Z,5.28
2023-02-22T11:32:49.166Z,5.31
2023-02-22T11:36:23.914Z,5.33
2023-02-22T11:40:10.683Z,5.34
2023-02-22T11:43:40.638Z,5.35
2023-02-22T11:47:09.697Z,5.34
2023-02-22T11:50:33.968Z,5.35
2023-02-22T11:54:08.422Z,5.35
2023-02-22T11:57:37.170Z,5.38
2023-02-22T12:01:13.580Z,5.36
2023-02-22T12:05:06.698Z,5.31
2023-02-22T12:08:42.541Z,5.24
2023-02-22T12:12:41.638Z,5.14
2023-02-22T12:16:38.695Z,5.02
2023-02-22T12:20:19.472Z,4.93
2023-02-22T12:23:47.647Z,4.86
2023-02-22T12:27:16.477Z,4.80
2023-02-22T12:30:57.271Z,4.75
2023-02-22T12:34:22.565Z,4.69
2023-02-22T12:37:54.260Z,4.62
2023-02-22T12:41:27.593Z,4.56
2023-02-22T12:45:06.997Z,4.53
2023-02-22T12:48:42.237Z,4.47
2023-02-22T12:52:21.956Z,4.40
2023-02-22T12:55:55.101Z,4.35
2023-02-22T12:59:27.718Z,4.28
2023-02-22T13:02:59.296Z,4.20
2023-02-22T13:06:18.060Z,4.14
2023-02-22T13:09:49.124Z,4.09
2023-02-22T13:13:17.986Z,4.05
2023-02-22T13:17:23.243Z,3.94
2023-02-22T13:21:16.493Z,3.83
2023-02-22T13:25:28.726Z,3.75
2023-02-22T13:29:04.497Z,3.68
2023-02-22T13:32:33.799Z,3.58
2023-02-22T13:36:21.554Z,3.52
2023-02-22T13:40:04.674Z,3.49
2023-02-22T13:43:32.253Z,3.45
2023-02-22T13:47:22.326Z,3.39
2023-02-22T13:51:03.747Z,3.36
2023-02-22T13:54:32.934Z,3.30
2023-02-22T13:58:20.682Z,3.24
2023-02-22T14:01:50.101Z,3.21
2023-02-22T14:05:22.190Z,3.21
2023-02-22T14:08:59.940Z,3.23
2023-02-22T14:12:35.075Z,3.25
2023-02-22T14:16:13.403Z,3.27
2023-02-22T14:19:45.784Z,3.26
2023-02-22T14:23:08.108Z,3.25
2023-02-22T14:26:37.835Z,3.18
2023-02-22T14:30:09.596Z,3.13
2023-02-22T14:33:41.259Z,3.08
2023-02-22T14:37:04.006Z,3.07
2023-02-22T14:40:35.619Z,3.07
2023-02-22T14:44:07.443Z,3.02
2023-02-22T14:47:36.719Z,2.99
2023-02-22T14:51:19.128Z,2.97
2023-02-22T14:54:52.713Z,2.94
2023-02-22T14:58:19.263Z,2.93
2023-02-22T15:02:11.781Z,2.93
2023-02-22T15:05:42.850Z,2.88
2023-02-22T15:09:12.230Z,2.87
2023-02-22T15:13:17.954Z,2.88
2023-02-22T15:16:31.184Z,2.87
2023-02-22T15:19:59.950Z,2.87
2023-02-22T15:23:28.915Z,2.85
2023-02-22T15:27:07.137Z,2.85
2023-02-22T15:30:42.044Z,2.85
2023-02-22T15:34:14.693Z,2.84
2023-02-22T15:37:43.871Z,2.79
2023-02-22T15:41:16.009Z,2.76
2023-02-22T15:44:51.316Z,2.72
2023-02-22T15:48:20.232Z,2.67
2023-02-22T15:52:01.624Z,2.63
2023-02-22T15:55:59.611Z,2.60
2023-02-22T15:59:09.101Z,2.57
2023-02-22T16:02:41.502Z,2.57
2023-02-22T16:06:02.033Z,2.58
2023-02-22T16:09:29.902Z,2.60
2023-02-22T16:13:03.033Z,2.59
2023-02-22T16:16:44.470Z,2.60
2023-02-22T16:20:29.075Z,2.61
2023-02-22T16:24:15.149Z,2.63
2023-02-22T16:27:47.814Z,2.63
2023-02-22T16:31:20.340Z,2.63
2023-02-22T16:34:49.778Z,2.62
2023-02-22T16:38:00.740Z,2.65
2023-02-22T16:41:33.263Z,2.65
2023-02-22T16:44:52.382Z,2.63
2023-02-22T16:48:21.472Z,2.62
2023-02-22T16:52:08.538Z,2.61
2023-02-22T16:55:47.052Z,2.60
2023-02-22T16:59:07.123Z,2.58
2023-02-22T17:02:36.303Z,2.61
2023-02-22T17:06:04.957Z,2.60
2023-02-22T17:09:33.746Z,2.59
2023-02-22T17:13:16.215Z,2.60
2023-02-22T17:16:50.490Z,2.57
2023-02-22T17:20:11.318Z,2.57
2023-02-22T17:23:40.143Z,2.57
2023-02-22T17:27:08.857Z,2.56
2023-02-22T17:30:37.748Z,2.57
2023-02-22T17:34:06.607Z,2.55
2023-02-22T17:37:35.471Z,2.55
2023-02-22T17:41:04.194Z,2.54
2023-02-22T17:44:25.746Z,2.53
2023-02-22T17:47:54.459Z,2.48
2023-02-22T17:51:23.785Z,2.44
2023-02-22T17:55:23.112Z,2.40
2023-02-22T17:58:42.088Z,2.37
2023-02-22T18:02:11.201Z,2.35
2023-02-22T18:05:41.023Z,2.32
2023-02-22T18:09:09.799Z,2.28
2023-02-22T18:12:39.012Z,2.28
2023-02-22T18:16:10.686Z,2.28
2023-02-22T18:19:38.204Z,2.30
2023-02-22T18:23:06.129Z,2.32
2023-02-22T18:26:37.452Z,2.31
2023-02-22T18:30:06.486Z,2.29
2023-02-22T18:33:35.757Z,2.29
2023-02-22T18:37:04.103Z,2.28
2023-02-22T18:40:33.149Z,2.27
2023-02-22T18:44:02.623Z,2.27
2023-02-22T18:47:31.878Z,2.28
2023-02-22T18:51:01.371Z,2.26
2023-02-22T18:54:27.313Z,2.29
2023-02-22T18:57:56.518Z,2.32
2023-02-22T19:01:25.707Z,2.37
2023-02-22T19:04:45.275Z,2.42
2023-02-22T19:08:14.596Z,2.46
2023-02-22T19:11:55.842Z,2.49
2023-02-22T19:15:25.479Z,2.52
2023-02-22T19:18:55.204Z,2.53
2023-02-22T19:22:24.265Z,2.54
2023-02-22T19:25:53.518Z,2.56
2023-02-22T19:29:22.649Z,2.60
2023-02-22T19:32:51.337Z,2.61
2023-02-22T19:36:10.263Z,2.64
2023-02-22T19:39:39.504Z,2.66
2023-02-22T19:43:08.171Z,2.71
2023-02-22T19:46:36.988Z,2.77
2023-02-22T19:49:59.954Z,2.84
2023-02-22T19:53:29.061Z,2.88
2023-02-22T19:56:58.241Z,2.93
2023-02-22T20:00:32.942Z,2.98
2023-02-22T20:04:02.265Z,3.01
2023-02-22T20:07:31.346Z,3.06
2023-02-22T20:11:01.025Z,3.10
2023-02-22T20:14:29.447Z,3.09
2023-02-22T20:17:51.563Z,3.08
2023-02-22T20:21:21.029Z,3.07
2023-02-22T20:24:50.637Z,3.05
2023-02-22T20:28:19.840Z,3.07
2023-02-22T20:31:55.095Z,3.12
2023-02-22T20:35:19.990Z,3.17
2023-02-22T20:38:47.986Z,3.20
2023-02-22T20:42:16.719Z,3.22
2023-02-22T20:45:46.141Z,3.23
2023-02-22T20:49:15.845Z,3.24
2023-02-22T20:52:45.196Z,3.28
2023-02-22T20:56:14.292Z,3.30
2023-02-22T20:59:43.651Z,3.31
2023-02-22T21:03:12.826Z,3.31
2023-02-22T21:06:37.004Z,3.30
2023-02-22T21:09:58.642Z,3.33
2023-02-22T21:13:27.954Z,3.35
2023-02-22T21:17:00.295Z,3.34
2023-02-22T21:20:29.658Z,3.36
2023-02-22T21:23:59.326Z,3.35
2023-02-22T21:27:28.401Z,3.32
2023-02-22T21:30:57.464Z,3.30
2023-02-22T21:34:26.795Z,3.25
2023-02-22T21:37:55.937Z,3.25
2023-02-22T21:41:17.057Z,3.23
2023-02-22T21:44:46.525Z,3.23
2023-02-22T21:48:15.810Z,3.24
2023-02-22T21:51:53.767Z,3.25
2023-02-22T21:55:23.070Z,3.28
2023-02-22T21:58:52.028Z,3.30
2023-02-22T22:02:22.113Z,3.33
2023-02-22T22:05:54.592Z,3.36
2023-02-22T22:09:23.411Z,3.37
2023-02-22T22:12:52.835Z,3.38
2023-02-22T22:16:20.679Z,3.38
2023-02-22T22:19:49.720Z,3.39
2023-02-22T22:23:19.153Z,3.40
2023-02-22T22:26:47.976Z,3.41
2023-02-22T22:30:16.715Z,3.43
2023-02-22T22:33:45.371Z,3.44
2023-02-22T22:37:14.664Z,3.47
2023-02-22T22:40:46.249Z,3.52
2023-02-22T22:44:13.941Z,3.54
2023-02-22T22:47:42.790Z,3.59
2023-02-22T22:51:12.099Z,3.65
2023-02-22T22:54:41.382Z,3.69
2023-02-22T22:58:12.941Z,3.72
2023-02-22T23:01:41.641Z,3.72
2023-02-22T23:05:10.403Z,3.71
2023-02-22T23:08:39.820Z,3.73
2023-02-22T23:12:11.323Z,3.76
2023-02-22T23:15:40.379Z,3.79
2023-02-22T23:19:09.745Z,3.79
2023-02-22T23:22:39.006Z,3.80
2023-02-22T23:26:08.106Z,3.80
2023-02-22T23:29:37.402Z,3.82
2023-02-22T23:33:06.419Z,3.81
2023-02-22T23:36:35.539Z,3.82
2023-02-22T23:40:04.741Z,3.82
2023-02-22T23:43:33.533Z,3.80
2023-02-22T23:47:05.824Z,3.80
2023-02-22T23:50:37.886Z,3.81
2023-02-22T23:54:02.320Z,3.81
2023-02-22T23:57:31.381Z,3.82
